Time;durP1;ratioP1;P1;durP2;ratioP2;P2;SDS_P1;SDS_P2;PMS_P1;PMS_P2;Temp;Humidity;BMP_temperature;BMP_pressure;BME280_temperature;BME280_humidity;BME280_pressure;Samples;Min_cycle;Max_cycle;Signal;HPM_P1;HPM_P2
2022/04/25 00:00:07;;;;;;;19.58;11.50;;;9.10;99.90;;;;;;5056957;28;20106;-84
2022/04/25 00:02:32;;;;;;;25.85;11.45;;;9.10;99.90;;;;;;5071611;28;20044;-85
2022/04/25 00:04:58;;;;;;;21.00;11.15;;;9.10;99.90;;;;;;5063348;28;20400;-84
2022/04/25 00:07:25;;;;;;;21.98;10.57;;;9.10;99.90;;;;;;5072914;28;20029;-85
2022/04/25 00:09:51;;;;;;;21.92;11.27;;;9.00;99.90;;;;;;5070730;28;20021;-85
2022/04/25 00:12:17;;;;;;;21.98;11.30;;;9.00;99.90;;;;;;5072146;28;20078;-85
2022/04/25 00:14:57;;;;;;;24.65;12.13;;;9.00;99.90;;;;;;5066295;28;20024;-85
2022/04/25 00:17:23;;;;;;;29.65;12.18;;;9.00;99.90;;;;;;5063629;28;20407;-85
2022/04/25 00:19:48;;;;;;;26.05;11.57;;;9.00;99.90;;;;;;5071032;28;20070;-84
2022/04/25 00:22:17;;;;;;;32.63;11.32;;;8.90;99.90;;;;;;5070646;28;20376;-85
2022/04/25 00:24:44;;;;;;;20.00;11.20;;;8.90;99.90;;;;;;5070592;28;20024;-85
2022/04/25 00:27:28;;;;;;;21.08;10.98;;;8.80;99.90;;;;;;5071867;28;20085;-85
2022/04/25 00:29:54;;;;;;;22.05;11.60;;;8.80;99.90;;;;;;5071899;28;20591;-84
2022/04/25 00:32:25;;;;;;;33.00;12.55;;;8.80;99.90;;;;;;5066260;28;20028;-84
2022/04/25 00:34:51;;;;;;;26.00;12.27;;;8.80;99.90;;;;;;5067942;28;20028;-84
2022/04/25 00:37:17;;;;;;;25.38;12.45;;;8.80;99.90;;;;;;5072589;28;20025;-84
2022/04/25 00:39:43;;;;;;;24.27;12.20;;;8.80;99.90;;;;;;5063842;28;20500;-84
2022/04/25 00:42:08;;;;;;;34.60;14.88;;;8.80;99.90;;;;;;5071640;28;20025;-84
2022/04/25 00:44:34;;;;;;;29.92;12.82;;;8.70;99.90;;;;;;5057669;28;20376;-84
2022/04/25 00:47:00;;;;;;;25.85;12.25;;;8.70;99.90;;;;;;5067516;28;20031;-84
2022/04/25 00:49:38;;;;;;;17.90;10.73;;;8.70;99.90;;;;;;5062506;28;20059;-84
2022/04/25 00:52:04;;;;;;;25.25;12.38;;;8.60;99.90;;;;;;5068610;28;20432;-85
2022/04/25 00:54:33;;;;;;;30.70;11.60;;;8.70;99.90;;;;;;5058543;28;20037;-83
2022/04/25 00:56:59;;;;;;;23.60;11.20;;;8.70;99.90;;;;;;5072153;28;20046;-83
2022/04/25 00:59:25;;;;;;;21.55;11.00;;;8.70;99.90;;;;;;5063997;28;20037;-84
2022/04/25 01:02:01;;;;;;;19.73;10.85;;;8.70;99.90;;;;;;5072081;28;20020;-83
2022/04/25 01:04:27;;;;;;;26.50;13.00;;;8.70;99.90;;;;;;5069289;28;20021;-84
2022/04/25 01:06:55;;;;;;;27.92;13.40;;;8.70;99.90;;;;;;5064561;28;20021;-84
2022/04/25 01:09:21;;;;;;;28.33;13.73;;;8.70;99.90;;;;;;5071790;28;20032;-85
2022/04/25 01:11:47;;;;;;;39.25;15.65;;;8.70;99.90;;;;;;5071249;28;20044;-84
2022/04/25 01:14:26;;;;;;;29.98;15.13;;;8.70;99.90;;;;;;5070382;28;20029;-84
2022/04/25 01:16:53;;;;;;;32.38;14.95;;;8.60;99.90;;;;;;5071455;28;20024;-84
2022/04/25 01:19:20;;;;;;;28.20;14.40;;;8.50;99.90;;;;;;5065505;28;20021;-83
2022/04/25 01:22:10;;;;;;;27.35;13.07;;;8.40;99.90;;;;;;5075287;28;20025;-83
2022/04/25 01:27:35;;;;;;;28.33;13.15;;;8.30;99.90;;;;;;5074491;28;20063;-84
2022/04/25 01:30:03;;;;;;;27.48;13.60;;;8.20;99.90;;;;;;5070713;28;20048;-84
2022/04/25 01:32:29;;;;;;;22.63;11.27;;;8.20;99.90;;;;;;5066180;28;20028;-84
2022/04/25 01:35:02;;;;;;;26.85;12.80;;;8.10;99.90;;;;;;5073312;28;20032;-85
2022/04/25 01:37:28;;;;;;;28.48;12.75;;;8.20;99.90;;;;;;5075332;28;20476;-84
2022/04/25 01:40:10;;;;;;;21.90;11.85;;;8.10;99.90;;;;;;5073641;28;20028;-84
2022/04/25 01:42:35;;;;;;;22.50;11.18;;;8.10;99.90;;;;;;5074073;28;20032;-85
2022/04/25 01:45:07;;;;;;;25.63;11.50;;;8.10;99.90;;;;;;5072144;28;20021;-85
2022/04/25 01:47:32;;;;;;;29.50;12.77;;;8.10;99.90;;;;;;5070330;28;20108;-85
2022/04/25 01:49:58;;;;;;;25.23;12.13;;;8.10;99.90;;;;;;5073266;28;20520;-85
2022/04/25 01:52:30;;;;;;;30.48;12.82;;;8.10;99.90;;;;;;5074420;28;20158;-85
2022/04/25 01:55:14;;;;;;;27.63;12.23;;;8.00;99.90;;;;;;5074431;28;20487;-85
2022/04/25 01:57:40;;;;;;;19.33;12.10;;;8.00;99.90;;;;;;5074005;28;20408;-85
2022/04/25 02:00:06;;;;;;;22.98;11.65;;;8.00;99.90;;;;;;5068547;28;20037;-85
2022/04/25 02:02:32;;;;;;;28.63;11.98;;;8.00;99.90;;;;;;5053357;28;20025;-84
2022/04/25 02:04:57;;;;;;;32.67;13.82;;;8.00;99.90;;;;;;5060461;28;20032;-85
2022/04/25 02:07:26;;;;;;;34.85;13.77;;;8.00;99.90;;;;;;5054603;28;20025;-85
2022/04/25 02:09:52;;;;;;;27.08;13.90;;;8.00;99.90;;;;;;5070774;28;20028;-85
2022/04/25 02:12:32;;;;;;;28.60;12.27;;;7.90;99.90;;;;;;5066875;28;20115;-86
2022/04/25 02:14:58;;;;;;;27.63;12.57;;;7.90;99.90;;;;;;5070639;28;20112;-86
2022/04/25 02:17:50;;;;;;;28.10;13.93;;;7.90;99.90;;;;;;5074026;28;20111;-87
2022/04/25 02:20:15;;;;;;;20.77;12.70;;;7.80;99.90;;;;;;5073846;28;20032;-87
2022/04/25 02:22:43;;;;;;;24.35;12.18;;;7.80;99.90;;;;;;5074161;28;20025;-88
2022/04/25 02:25:09;;;;;;;29.23;14.57;;;7.80;99.90;;;;;;5068108;28;20063;-89
2022/04/25 02:27:55;;;;;;;27.27;13.70;;;7.80;99.90;;;;;;5073975;28;20024;-89
2022/04/25 02:30:21;;;;;;;26.90;11.77;;;7.70;99.90;;;;;;5072214;28;20484;-89
2022/04/25 02:32:47;;;;;;;31.60;13.10;;;7.70;99.90;;;;;;5057675;28;20029;-89
2022/04/25 02:35:13;;;;;;;27.52;13.70;;;7.70;99.90;;;;;;5075517;28;20032;-89
2022/04/25 02:37:47;;;;;;;27.95;13.80;;;7.60;99.90;;;;;;5054541;28;20036;-89
2022/04/25 02:40:13;;;;;;;25.90;14.25;;;7.60;99.90;;;;;;5068420;28;20373;-90
2022/04/25 02:42:49;;;;;;;33.40;14.23;;;7.60;99.90;;;;;;5073079;28;20025;-90
2022/04/25 02:45:14;;;;;;;;;;;7.50;99.90;;;;;;5073632;28;20438;-90
2022/04/25 02:47:57;;;;;;;30.13;13.85;;;7.50;99.90;;;;;;5072875;28;19911;-90
2022/04/25 02:50:22;;;;;;;29.17;13.75;;;7.40;99.90;;;;;;5060873;28;21763;-89
2022/04/25 02:52:53;;;;;;;29.65;13.40;;;7.40;99.90;;;;;;5061140;28;20052;-89
2022/04/25 02:55:19;;;;;;;27.65;14.18;;;7.40;99.90;;;;;;5070427;28;20082;-89
2022/04/25 02:57:45;;;;;;;29.63;14.38;;;7.30;99.90;;;;;;5073451;28;20564;-89
2022/04/25 03:00:11;;;;;;;41.83;15.02;;;7.20;99.90;;;;;;5056619;28;20056;-88
2022/04/25 03:02:49;;;;;;;32.63;15.90;;;7.20;99.90;;;;;;5063966;28;20047;-87
2022/04/25 03:05:14;;;;;;;27.90;14.90;;;7.20;99.90;;;;;;5064875;28;20025;-88
2022/04/25 03:07:58;;;;;;;30.60;15.63;;;7.10;99.90;;;;;;5064981;28;20062;-88
2022/04/25 03:10:23;;;;;;;35.50;17.55;;;7.10;99.90;;;;;;5072068;28;20093;-88
2022/04/25 03:12:49;;;;;;;30.10;15.98;;;7.10;99.90;;;;;;5068141;28;20032;-89
2022/04/25 03:15:27;;;;;;;28.08;15.80;;;7.00;99.90;;;;;;5073507;28;20020;-89
2022/04/25 03:17:52;;;;;;;27.50;16.10;;;7.00;99.90;;;;;;5071678;28;20042;-88
2022/04/25 03:20:25;;;;;;;33.50;17.10;;;7.00;99.90;;;;;;5067680;28;20528;-88
2022/04/25 03:22:51;;;;;;;36.72;18.05;;;7.00;99.90;;;;;;5073187;28;20025;-87
2022/04/25 03:25:16;;;;;;;31.67;17.05;;;7.00;99.90;;;;;;5071997;28;20025;-87
2022/04/25 03:27:48;;;;;;;28.67;18.45;;;7.10;99.90;;;;;;5067653;28;20416;-86
2022/04/25 03:30:17;;;;;;;24.63;15.57;;;7.00;99.90;;;;;;5064582;28;20032;-86
2022/04/25 03:32:56;;;;;;;25.58;15.52;;;7.10;99.90;;;;;;5069485;28;20021;-86
2022/04/25 03:35:22;;;;;;;25.23;16.30;;;7.10;99.90;;;;;;5070138;28;20068;-86
2022/04/25 03:37:49;;;;;;;28.20;19.02;;;7.10;99.90;;;;;;5072102;28;20024;-86
2022/04/25 03:40:17;;;;;;;24.88;16.95;;;7.10;99.90;;;;;;5070592;28;20020;-86
2022/04/25 03:42:46;;;;;;;35.60;17.75;;;7.10;99.90;;;;;;5072038;28;20541;-86
2022/04/25 03:45:18;;;;;;;30.58;18.45;;;7.10;99.90;;;;;;5066804;28;20075;-85
2022/04/25 03:47:45;;;;;;;28.50;18.38;;;7.10;99.90;;;;;;5072936;28;20024;-85
2022/04/25 03:50:15;;;;;;;27.45;17.63;;;7.10;99.90;;;;;;5057708;28;20048;-85
2022/04/25 03:52:44;;;;;;;21.95;15.70;;;7.10;99.90;;;;;;5052916;28;20025;-86
2022/04/25 03:58:04;;;;;;;30.23;16.58;;;7.10;99.90;;;;;;5072792;28;20036;-86
2022/04/25 04:00:31;;;;;;;25.45;15.73;;;7.10;99.90;;;;;;5067518;28;20412;-85
2022/04/25 04:02:58;;;;;;;23.23;15.98;;;7.10;99.90;;;;;;5071401;28;20020;-85
2022/04/25 04:05:25;;;;;;;25.50;17.48;;;7.10;99.90;;;;;;5071764;28;20472;-85
2022/04/25 04:07:51;;;;;;;25.23;17.23;;;7.10;99.90;;;;;;5072390;28;20028;-85
2022/04/25 04:10:18;;;;;;;26.33;17.88;;;7.00;99.90;;;;;;5072760;28;20021;-85
2022/04/25 04:12:47;;;;;;;25.10;16.52;;;7.10;99.90;;;;;;5067425;28;20121;-85
2022/04/25 04:15:32;;;;;;;31.85;19.50;;;7.10;99.90;;;;;;5051430;28;20032;-85
2022/04/25 04:17:58;;;;;;;27.55;17.38;;;7.10;99.90;;;;;;5056807;28;20051;-85
2022/04/25 04:20:42;;;;;;;27.48;17.85;;;7.00;99.90;;;;;;5072260;28;20058;-86
2022/04/25 04:23:07;;;;;;;28.17;17.85;;;7.10;99.90;;;;;;5070631;28;20427;-85
2022/04/25 04:25:39;;;;;;;25.75;17.17;;;7.10;99.90;;;;;;5071111;28;20056;-85
2022/04/25 04:28:06;;;;;;;22.75;16.80;;;7.00;99.90;;;;;;5065039;28;20150;-85
2022/04/25 04:30:53;;;;;;;22.83;15.70;;;7.00;99.90;;;;;;5069729;28;20107;-85
2022/04/25 04:33:19;;;;;;;23.00;16.40;;;7.00;99.90;;;;;;5072030;28;20024;-85
2022/04/25 04:38:38;;;;;;;25.85;17.33;;;7.00;99.90;;;;;;5070665;28;20094;-85
2022/04/25 04:41:04;;;;;;;28.00;18.52;;;7.00;99.90;;;;;;5052096;28;20032;-86
2022/04/25 04:43:29;;;;;;;28.75;19.33;;;7.00;99.90;;;;;;5065412;28;20383;-85
2022/04/25 04:46:03;;;;;;;27.02;18.52;;;7.00;99.90;;;;;;5070778;28;20027;-85
2022/04/25 04:48:28;;;;;;;31.38;19.25;;;7.10;99.90;;;;;;5060431;28;20443;-85
2022/04/25 04:51:01;;;;;;;27.45;19.35;;;7.00;99.90;;;;;;5063319;28;20020;-85
2022/04/25 04:53:27;;;;;;;26.80;19.80;;;7.00;99.90;;;;;;5069109;28;20017;-85
2022/04/25 04:55:53;;;;;;;24.52;18.55;;;7.00;99.90;;;;;;5072617;28;20507;-85
2022/04/25 04:58:20;;;;;;;33.13;18.15;;;7.00;99.90;;;;;;5070875;28;20472;-85
2022/04/25 05:00:55;;;;;;;23.23;16.90;;;7.00;99.90;;;;;;5073959;28;20043;-85
2022/04/25 05:03:20;;;;;;;25.08;17.17;;;7.00;99.90;;;;;;5071607;28;20078;-85
2022/04/25 05:05:46;;;;;;;22.40;15.80;;;7.00;99.90;;;;;;5066990;28;20036;-85
2022/04/25 05:08:26;;;;;;;28.40;17.85;;;7.00;99.90;;;;;;5074681;28;20362;-85
2022/04/25 05:10:54;;;;;;;25.10;16.50;;;7.00;99.90;;;;;;5060494;28;20117;-85
2022/04/25 05:13:20;;;;;;;26.30;17.02;;;7.00;99.90;;;;;;5061038;28;20029;-85
2022/04/25 05:15:53;;;;;;;25.15;16.90;;;7.00;99.90;;;;;;5055981;28;20032;-85
2022/04/25 05:18:19;;;;;;;29.70;17.55;;;7.00;99.90;;;;;;5073631;28;20040;-85
2022/04/25 05:20:45;;;;;;;26.30;17.38;;;7.00;99.90;;;;;;5068460;28;20108;-85
2022/04/25 05:23:21;;;;;;;23.80;15.90;;;7.00;99.90;;;;;;5069570;28;20099;-85
2022/04/25 05:25:46;;;;;;;38.25;20.33;;;7.00;99.90;;;;;;5074525;28;20028;-86
2022/04/25 05:28:12;;;;;;;27.35;17.40;;;7.00;99.90;;;;;;5074651;28;20430;-85
2022/04/25 05:30:37;;;;;;;27.10;17.42;;;7.00;99.90;;;;;;5066036;28;20021;-85
2022/04/25 05:33:03;;;;;;;33.13;18.33;;;7.10;99.90;;;;;;5068466;28;20024;-85
2022/04/25 05:35:33;;;;;;;26.52;18.88;;;7.10;99.90;;;;;;5066124;28;20389;-85
2022/04/25 05:38:00;;;;;;;35.78;21.13;;;7.10;99.90;;;;;;5061770;28;20033;-85
2022/04/25 05:40:26;;;;;;;27.00;18.85;;;7.10;99.90;;;;;;5063812;28;20056;-85
2022/04/25 05:42:53;;;;;;;28.77;20.20;;;7.00;99.90;;;;;;5053531;28;20051;-85
2022/04/25 05:45:21;;;;;;;33.35;21.38;;;7.10;99.90;;;;;;5057079;28;20376;-85
2022/04/25 05:47:47;;;;;;;31.63;21.15;;;7.10;99.90;;;;;;5068320;28;20021;-85
2022/04/25 05:53:00;;;;;;;26.23;18.48;;;7.10;99.90;;;;;;5067642;28;20077;-85
2022/04/25 05:55:33;;;;;;;32.60;19.73;;;7.10;99.90;;;;;;5070745;28;20024;-85
2022/04/25 05:58:01;;;;;;;27.83;16.48;;;7.10;99.90;;;;;;5054886;28;20055;-85
2022/04/25 06:00:27;;;;;;;25.40;17.42;;;7.10;99.90;;;;;;5069766;28;20052;-85
2022/04/25 06:03:02;;;;;;;29.70;17.25;;;7.10;99.90;;;;;;5070917;28;20028;-85
2022/04/25 06:05:27;;;;;;;30.45;18.23;;;7.10;99.90;;;;;;5076762;28;20029;-85
2022/04/25 06:08:19;;;;;;;26.00;16.17;;;7.10;99.90;;;;;;5072381;28;20037;-85
2022/04/25 06:10:44;;;;;;;21.80;16.15;;;7.10;99.90;;;;;;5078291;28;20522;-85
2022/04/25 06:13:15;;;;;;;19.92;15.35;;;7.10;99.90;;;;;;5073554;28;20028;-85
2022/04/25 06:15:41;;;;;;;22.80;16.15;;;7.10;99.90;;;;;;5073729;28;20074;-85
2022/04/25 06:18:06;;;;;;;24.25;15.48;;;7.10;99.90;;;;;;5067014;28;20469;-85
2022/04/25 06:20:40;;;;;;;28.80;16.40;;;7.10;99.90;;;;;;5067661;28;20341;-85
2022/04/25 06:23:06;;;;;;;24.95;14.77;;;7.10;99.90;;;;;;5070708;28;20029;-85
2022/04/25 06:25:32;;;;;;;23.73;15.65;;;7.10;99.90;;;;;;5054177;28;20092;-85
2022/04/25 06:28:00;;;;;;;21.23;14.77;;;7.10;99.90;;;;;;5066613;28;20031;-85
2022/04/25 06:30:28;;;;;;;22.90;15.48;;;7.10;99.90;;;;;;5065525;28;20020;-85
2022/04/25 06:33:01;;;;;;;22.38;15.23;;;7.10;99.90;;;;;;5064674;28;20346;-85
2022/04/25 06:35:27;;;;;;;29.85;17.05;;;7.10;99.90;;;;;;5054309;28;20103;-85
2022/04/25 06:37:56;;;;;;;35.70;19.75;;;7.20;99.90;;;;;;5064804;28;20039;-85
2022/04/25 06:40:22;;;;;;;28.67;19.40;;;7.20;99.90;;;;;;5070522;28;20487;-85
2022/04/25 06:42:48;;;;;;;23.77;17.55;;;7.20;99.90;;;;;;5067245;28;20025;-85
2022/04/25 06:45:29;;;;;;;25.80;19.77;;;7.10;99.90;;;;;;5073131;28;20070;-85
2022/04/25 06:47:54;;;;;;;32.03;21.08;;;7.10;99.90;;;;;;5064043;28;20021;-86
2022/04/25 06:50:40;;;;;;;27.05;18.67;;;7.10;99.90;;;;;;5058176;28;21601;-85
2022/04/25 06:53:06;;;;;;;;;;;7.10;99.90;;;;;;5071288;28;20025;-84
2022/04/25 06:55:33;;;;;;;31.92;19.02;;;7.10;99.90;;;;;;5069674;28;19908;-85
2022/04/25 06:58:00;;;;;;;25.85;15.90;;;7.10;99.90;;;;;;5068999;28;20046;-85
2022/04/25 07:00:30;;;;;;;25.55;16.55;;;7.00;99.90;;;;;;5069934;28;20072;-85
2022/04/25 07:02:55;;;;;;;21.10;15.13;;;7.10;99.90;;;;;;5053308;28;20471;-85
2022/04/25 07:05:24;;;;;;;25.65;15.40;;;7.10;99.90;;;;;;5080107;28;20163;-85
2022/04/25 07:07:50;;;;;;;27.58;17.73;;;7.10;99.90;;;;;;5056304;28;20481;-85
2022/04/25 07:10:16;;;;;;;24.50;15.60;;;7.10;99.90;;;;;;5065983;28;20020;-85
2022/04/25 07:12:42;;;;;;;20.25;13.32;;;7.10;99.90;;;;;;5063314;28;20027;-85
2022/04/25 07:15:08;;;;;;;21.10;14.00;;;7.10;99.90;;;;;;5057894;28;20095;-85
2022/04/25 07:17:36;;;;;;;27.48;14.70;;;7.10;99.90;;;;;;5057108;28;20147;-85
2022/04/25 07:20:02;;;;;;;26.90;15.88;;;7.00;99.90;;;;;;5059520;28;20029;-85
2022/04/25 07:31:06;;;;;;;28.98;19.95;;;7.10;99.90;;;;;;5065878;28;20060;-85
2022/04/25 07:33:35;;;;;;;39.38;21.25;;;7.10;99.90;;;;;;5069369;28;20068;-85
2022/04/25 07:36:00;;;;;;;34.65;20.50;;;7.10;99.90;;;;;;5069796;28;20464;-85
2022/04/25 07:38:27;;;;;;;31.58;19.95;;;7.10;99.90;;;;;;5061677;28;20038;-84
2022/04/25 07:40:53;;;;;;;33.00;20.95;;;7.10;99.90;;;;;;5063719;28;20882;-85
2022/04/25 07:43:24;;;;;;;32.15;21.00;;;7.10;99.90;;;;;;5063708;28;20052;-85
2022/04/25 07:45:51;;;;;;;29.73;20.38;;;7.10;99.90;;;;;;5068345;28;20028;-85
2022/04/25 07:48:25;;;;;;;34.40;19.92;;;7.10;99.90;;;;;;5073086;28;20103;-85
2022/04/25 07:50:50;;;;;;;34.40;20.20;;;7.20;99.90;;;;;;5070709;28;20039;-85
2022/04/25 07:53:17;;;;;;;28.75;18.88;;;7.20;99.90;;;;;;5057394;28;20032;-85
2022/04/25 07:55:42;;;;;;;30.30;19.27;;;7.20;99.90;;;;;;5060158;28;20033;-85
2022/04/25 07:58:15;;;;;;;26.65;17.48;;;7.20;99.90;;;;;;5067692;28;20024;-85
2022/04/25 08:00:42;;;;;;;32.42;20.92;;;7.20;99.90;;;;;;5072554;28;20117;-84
2022/04/25 08:03:08;;;;;;;35.78;20.30;;;7.20;99.90;;;;;;5072728;28;20357;-84
2022/04/25 08:05:50;;;;;;;27.27;18.77;;;7.30;99.90;;;;;;5070804;28;20031;-85
2022/04/25 08:08:15;;;;;;;34.72;19.83;;;7.30;99.90;;;;;;5059838;28;20029;-85
2022/04/25 08:10:43;;;;;;;37.45;20.38;;;7.30;99.90;;;;;;5072158;28;20024;-85
2022/04/25 08:18:37;;;;;;;33.92;20.40;;;7.30;99.90;;;;;;5052512;28;20504;-85
2022/04/25 08:21:06;;;;;;;38.00;21.15;;;7.30;99.90;;;;;;5064271;28;20025;-85
2022/04/25 08:23:32;;;;;;;37.50;21.35;;;7.30;99.90;;;;;;5060417;28;20071;-84
2022/04/25 08:26:04;;;;;;;36.42;20.73;;;7.30;99.90;;;;;;5052750;28;20033;-85
2022/04/25 08:28:30;;;;;;;37.17;21.38;;;7.30;99.90;;;;;;5067320;28;20477;-84
2022/04/25 08:31:07;;;;;;;31.05;20.08;;;7.30;99.90;;;;;;5070897;28;20025;-85
2022/04/25 08:33:32;;;;;;;42.70;23.42;;;7.30;99.90;;;;;;5076433;28;20020;-85
2022/04/25 08:36:04;;;;;;;40.92;22.90;;;7.30;99.90;;;;;;5070715;28;20044;-84
2022/04/25 08:38:30;;;;;;;35.83;23.08;;;7.30;99.90;;;;;;5069770;28;20033;-84
2022/04/25 08:40:57;;;;;;;38.17;23.35;;;7.30;99.90;;;;;;5075043;28;20430;-85
2022/04/25 08:43:23;;;;;;;45.05;25.60;;;7.20;99.90;;;;;;5074134;28;20024;-84
2022/04/25 08:46:07;;;;;;;45.42;26.45;;;7.30;99.90;;;;;;5060105;28;20032;-84
2022/04/25 08:48:33;;;;;;;41.25;26.30;;;7.30;99.90;;;;;;5070068;28;20029;-84
2022/04/25 08:51:10;;;;;;;59.08;28.17;;;7.30;99.90;;;;;;5073873;28;20028;-84
2022/04/25 08:53:39;;;;;;;46.42;26.60;;;7.30;99.90;;;;;;5056807;28;20029;-84
2022/04/25 08:56:15;;;;;;;45.80;24.70;;;7.30;99.90;;;;;;5074557;28;20035;-84
2022/04/25 08:58:41;;;;;;;;;;;7.30;99.90;;;;;;5076699;28;20064;-84
2022/04/25 09:01:09;;;;;;;;;;;7.30;99.90;;;;;;5073970;28;19916;-84
2022/04/25 09:03:36;;;;;;;43.05;24.23;;;7.30;99.90;;;;;;5070188;28;19949;-84
2022/04/25 09:06:03;;;;;;;48.10;26.65;;;7.30;99.90;;;;;;5064015;28;20024;-84
2022/04/25 09:08:28;;;;;;;41.70;25.20;;;7.30;99.90;;;;;;5071534;28;20029;-85
2022/04/25 09:12:09;;;;;;;45.72;27.00;;;7.30;99.90;;;;;;5069752;28;20032;-84
2022/04/25 09:13:47;;;;;;;40.05;23.00;;;7.30;99.90;;;;;;5072863;28;20032;-84
2022/04/25 09:16:14;;;;;;;51.55;24.35;;;7.30;99.90;;;;;;5070397;28;20206;-84
2022/04/25 09:18:42;;;;;;;42.70;25.13;;;7.40;99.90;;;;;;5075226;28;20035;-84
2022/04/25 09:21:12;;;;;;;39.90;25.23;;;7.30;99.90;;;;;;5070365;28;20112;-84
2022/04/25 09:23:42;;;;;;;40.63;23.63;;;7.30;99.90;;;;;;5062674;28;20017;-84
2022/04/25 09:26:10;;;;;;;34.70;23.45;;;7.40;99.90;;;;;;5071900;28;20058;-84
2022/04/25 09:28:55;;;;;;;39.47;23.17;;;7.40;99.90;;;;;;5062847;28;20033;-84
2022/04/25 09:31:24;;;;;;;40.78;24.25;;;7.40;99.90;;;;;;5064624;28;20048;-84
2022/04/25 09:34:14;;;;;;;40.20;22.42;;;7.50;99.90;;;;;;5064586;28;20032;-84
2022/04/25 09:36:47;;;;;;;37.78;22.17;;;7.50;99.90;;;;;;5068584;28;20025;-84
2022/04/25 09:39:30;;;;;;;44.78;23.73;;;7.50;99.90;;;;;;5056722;28;20028;-84
2022/04/25 09:41:57;;;;;;;33.53;21.90;;;7.50;99.90;;;;;;5070999;28;20021;-84
2022/04/25 09:44:23;;;;;;;40.70;23.02;;;7.50;99.90;;;;;;5071929;28;20020;-84
2022/04/25 09:46:49;;;;;;;40.60;21.85;;;7.50;99.90;;;;;;5061995;28;20017;-84
2022/04/25 09:49:21;;;;;;;32.63;21.38;;;7.50;99.90;;;;;;5073075;28;20438;-85
2022/04/25 09:52:03;;;;;;;36.30;22.58;;;7.50;99.90;;;;;;5070603;28;20481;-84
2022/04/25 09:54:40;;;;;;;39.15;21.73;;;7.60;99.90;;;;;;5053693;28;20083;-85
2022/04/25 09:57:06;;;;;;;39.10;22.33;;;7.60;99.90;;;;;;5055039;28;20025;-84
2022/04/25 09:59:43;;;;;;;38.90;21.45;;;7.60;99.90;;;;;;5069147;28;20043;-84
2022/04/25 10:02:09;;;;;;;36.78;19.63;;;7.60;99.90;;;;;;5074328;28;20138;-84
2022/04/25 10:04:41;;;;;;;41.63;23.15;;;7.60;99.90;;;;;;5071724;28;20036;-84
2022/04/25 10:07:07;;;;;;;33.50;20.17;;;7.70;99.90;;;;;;5067715;28;20436;-84
2022/04/25 10:09:43;;;;;;;39.50;21.63;;;7.70;99.90;;;;;;5068897;28;20040;-84
2022/04/25 10:12:10;;;;;;;39.97;21.45;;;7.70;99.90;;;;;;5055494;28;20025;-84
2022/04/25 10:14:41;;;;;;;31.77;21.33;;;7.70;99.90;;;;;;5072145;28;20032;-85
2022/04/25 10:17:07;;;;;;;32.58;21.25;;;7.70;99.90;;;;;;5061641;28;20428;-84
2022/04/25 10:19:40;;;;;;;39.75;22.17;;;7.70;99.90;;;;;;5058406;28;20094;-85
2022/04/25 10:22:15;;;;;;;34.13;20.08;;;7.70;99.90;;;;;;5067085;28;20531;-85
2022/04/25 10:24:41;;;;;;;40.27;21.80;;;7.70;99.90;;;;;;5064612;28;20032;-84
2022/04/25 10:27:14;;;;;;;35.47;21.08;;;7.80;99.90;;;;;;5067800;28;20025;-84
2022/04/25 10:29:46;;;;;;;34.78;20.55;;;7.80;99.90;;;;;;5065955;28;20447;-84
2022/04/25 10:32:16;;;;;;;35.35;20.77;;;7.80;99.90;;;;;;5061796;28;20028;-84
2022/04/25 10:34:45;;;;;;;29.33;17.45;;;7.80;99.90;;;;;;5063421;28;20078;-84
2022/04/25 10:37:31;;;;;;;25.55;17.70;;;7.80;99.90;;;;;;5084625;28;20028;-84
2022/04/25 10:40:01;;;;;;;35.35;20.90;;;7.80;99.90;;;;;;5070141;28;20465;-84
2022/04/25 10:45:11;;;;;;;39.63;19.67;;;7.90;99.90;;;;;;5061799;28;20036;-84
2022/04/25 10:47:52;;;;;;;41.55;20.42;;;7.90;99.90;;;;;;5063929;28;20036;-84
2022/04/25 10:50:18;;;;;;;39.20;19.80;;;7.90;99.90;;;;;;5066840;28;20020;-84
2022/04/25 10:52:55;;;;;;;27.73;16.88;;;7.80;99.90;;;;;;5065850;28;20019;-84
2022/04/25 10:55:29;;;;;;;27.70;18.38;;;7.90;99.90;;;;;;5061948;28;20023;-85
2022/04/25 10:58:03;;;;;;;32.90;19.98;;;7.80;99.90;;;;;;5068956;28;20465;-85
2022/04/25 11:01:00;;;;;;;29.13;18.30;;;7.90;99.90;;;;;;5064987;28;20515;-84
2022/04/25 11:03:32;;;;;;;29.77;17.40;;;7.90;99.90;;;;;;5081769;28;20029;-84
2022/04/25 11:06:00;;;;;;;29.58;18.13;;;8.00;99.90;;;;;;5058850;28;20029;-84
2022/04/25 11:08:35;;;;;;;33.22;18.45;;;8.00;99.90;;;;;;5057148;28;20071;-84
2022/04/25 11:11:06;;;;;;;29.77;18.15;;;8.00;99.90;;;;;;5063946;28;20036;-84
2022/04/25 11:13:35;;;;;;;34.38;19.85;;;8.10;99.90;;;;;;5070752;28;20021;-84
2022/04/25 11:16:14;;;;;;;37.80;20.92;;;8.10;99.90;;;;;;5070880;28;20479;-84
2022/04/25 11:18:41;;;;;;;40.38;20.73;;;8.10;99.90;;;;;;5057846;28;20496;-84
2022/04/25 11:21:15;;;;;;;32.53;19.05;;;8.10;99.90;;;;;;5060906;28;20078;-84
2022/04/25 11:23:43;;;;;;;35.70;18.65;;;8.10;99.90;;;;;;5071747;28;20025;-84
2022/04/25 11:26:30;;;;;;;31.73;18.08;;;8.10;99.90;;;;;;5072534;28;20035;-84
2022/04/25 11:28:58;;;;;;;29.15;18.70;;;8.10;99.90;;;;;;5066149;28;20021;-84
2022/04/25 11:31:25;;;;;;;45.42;21.33;;;8.10;99.90;;;;;;5071486;28;20036;-84
2022/04/25 11:33:53;;;;;;;29.33;19.08;;;8.10;99.90;;;;;;5074902;28;20024;-84
2022/04/25 11:36:20;;;;;;;38.58;20.25;;;8.10;99.90;;;;;;5063546;28;20116;-84
2022/04/25 11:41:43;;;;;;;31.00;18.70;;;8.20;99.90;;;;;;5061464;28;20028;-85
2022/04/25 11:44:16;;;;;;;35.28;21.08;;;8.20;99.90;;;;;;5072813;28;20271;-84
2022/04/25 11:46:43;;;;;;;31.40;20.02;;;8.20;99.90;;;;;;5071220;28;20476;-84
2022/04/25 11:49:38;;;;;;;32.83;19.92;;;8.30;99.90;;;;;;5072286;28;20021;-84
2022/04/25 11:52:20;;;;;;;35.65;19.75;;;8.30;99.90;;;;;;5063450;28;20571;-84
2022/04/25 11:54:45;;;;;;;35.10;20.85;;;8.30;99.90;;;;;;5052581;28;20021;-84
2022/04/25 11:57:16;;;;;;;38.00;21.17;;;8.30;99.90;;;;;;5054429;28;20491;-84
2022/04/25 12:00:08;;;;;;;29.45;19.55;;;8.30;99.90;;;;;;5057467;28;20050;-84
2022/04/25 12:02:35;;;;;;;30.70;19.23;;;8.40;99.90;;;;;;5063803;28;20116;-84
2022/04/25 12:05:07;;;;;;;38.35;21.25;;;8.40;99.90;;;;;;5069575;28;20031;-84
2022/04/25 12:07:37;;;;;;;40.70;22.08;;;8.40;99.90;;;;;;5059755;28;20081;-84
2022/04/25 12:15:54;;;;;;;33.65;18.17;;;8.50;99.90;;;;;;5067429;28;20101;-84
2022/04/25 12:18:42;;;;;;;28.15;18.00;;;8.50;99.90;;;;;;5068195;28;20389;-84
2022/04/25 12:21:12;;;;;;;35.80;21.70;;;8.50;99.90;;;;;;5063858;28;20515;-84
2022/04/25 12:23:46;;;;;;;32.65;19.17;;;8.50;99.90;;;;;;5068422;28;20104;-84
2022/04/25 12:26:41;;;;;;;34.28;19.17;;;8.50;99.90;;;;;;5065335;28;20534;-84
2022/04/25 12:29:09;;;;;;;33.40;19.38;;;8.50;99.90;;;;;;5052428;28;20033;-84
2022/04/25 12:31:49;;;;;;;41.83;21.15;;;8.50;99.90;;;;;;5062918;28;20419;-84
2022/04/25 12:34:19;;;;;;;27.75;17.50;;;8.50;99.90;;;;;;5070156;28;20036;-84
2022/04/25 12:36:56;;;;;;;28.88;17.73;;;8.50;99.90;;;;;;5063641;28;20024;-84
2022/04/25 12:39:22;;;;;;;27.13;17.23;;;8.50;99.90;;;;;;5051662;28;20032;-84
2022/04/25 12:41:56;;;;;;;35.38;19.30;;;8.60;99.90;;;;;;5067103;28;20017;-84
2022/04/25 12:44:23;;;;;;;32.25;17.77;;;8.60;99.90;;;;;;5074770;28;20022;-84
2022/04/25 12:46:55;;;;;;;29.48;20.02;;;8.60;99.90;;;;;;5070399;28;20353;-84
2022/04/25 12:49:24;;;;;;;33.80;20.67;;;8.70;99.90;;;;;;5065538;28;20021;-84
2022/04/25 12:51:59;;;;;;;28.80;19.35;;;8.70;99.90;;;;;;5065962;28;20053;-83
2022/04/25 12:54:30;;;;;;;32.22;20.73;;;8.70;99.90;;;;;;5056460;28;20024;-84
2022/04/25 12:57:16;;;;;;;32.00;19.25;;;8.70;99.90;;;;;;5059913;28;20484;-84
2022/04/25 12:59:43;;;;;;;30.38;19.52;;;8.70;99.90;;;;;;5056230;28;20021;-83
2022/04/25 13:02:17;;;;;;;41.65;21.05;;;8.70;99.90;;;;;;5072177;28;20104;-84
2022/04/25 13:05:11;;;;;;;33.47;20.08;;;8.80;99.90;;;;;;5066617;28;20067;-84
2022/04/25 13:07:41;;;;;;;33.20;19.17;;;8.80;99.90;;;;;;5059979;28;20439;-85
2022/04/25 13:10:14;;;;;;;34.67;19.30;;;8.80;99.90;;;;;;5060399;28;20052;-84
2022/04/25 13:12:54;;;;;;;39.33;20.52;;;8.80;99.90;;;;;;5070234;28;20522;-84
2022/04/25 13:15:22;;;;;;;33.42;20.67;;;8.80;99.90;;;;;;5055031;28;20025;-84
2022/04/25 13:17:51;;;;;;;32.75;18.92;;;8.80;99.90;;;;;;5074970;28;20488;-84
2022/04/25 13:20:20;;;;;;;34.72;19.38;;;8.80;99.90;;;;;;5070584;28;20021;-85
2022/04/25 13:22:49;;;;;;;34.08;17.35;;;8.80;99.90;;;;;;5072157;28;20052;-84
2022/04/25 13:25:16;;;;;;;27.27;17.48;;;8.90;99.90;;;;;;5074047;28;20391;-84
2022/04/25 13:27:42;;;;;;;27.42;17.02;;;8.90;99.90;;;;;;5072986;28;20468;-84
2022/04/25 13:30:12;;;;;;;28.50;17.30;;;8.90;99.90;;;;;;5075965;28;20028;-84